Ernesto Cortissoz International Airport
SKBQ : now visible

Airfield :











YOU CAN JOIN US ON...

 
LOGIN :

Register | Disclaimer

   EN    FR    IT 

 









Legend :    VFR   Marginal VFR   IFR   Intensive IFR   Very Intensive IFR
Visi :
Ceiling :
>= 8 km
>= 3000ft
5 to 8 km
1000 to 3000 ft
1500m to 5 km
500 to 1000 ft
800 to 1500m
200 to 500 ft
< 800m
< 200 ft
Symbols :   Thunderstorms  Fog  Heavy snow  Heavy precipitations  Wind > 20 kt






- Airport Elevation : 98 ft
- IATA code : BAQ


SKBQ - Ernesto Cortissoz International

CURRENT METAR :
  • 132200Z 35005KT 310V030 9999 SCT012TCU BKN100 29/25 A2978 NOSIG RMK TCU/NW/S

EXPIRED METARs :
  • 132100Z VRB04KT 9999 SCT012TCU BKN100 31/26 A2976 NOSIG RMK TCU/S
  • 132000Z VRB07KT 9999 SCT012 BKN100 32/26 A2975 NOSIG

TAF COR TAF SKBQ
Valid from the 13 at 18:00 until the 14 at 18:00 UTC


131630Z 1318/1418 13008KT 9999 FEW015 SCT070
PROB40
TEMPO 1322/1401 RA SCT015 BKN080
BECMG 1402/1404 VRB02KT TX32/1318Z TN25/1411Z



MET'MAP, your aeronautical weather chart ! - Copyright ORBIFLY December 2007 - Disclaimer

ORBIFLY MET'MAP TEAM :

Programming & Development : Alexandra Zaïnal
Concept & Development : Baudouin d'Aumeries
Co-Development & Prog : Marc-Olivier Méhu
Technical & hardware support : Manuel Goepfert

Contact : metmap@orbifly.com




SOURCES & CREDITS :

   NOAA       Earth
Advisory